sensor_id;sensor_type;location;lat;lon;timestamp;P1;durP1;ratioP1;P2;durP2;ratioP2
29402;SDS011;16382;59.942;30.472;2022-10-23T00:00:44;7.05;;;2.80;;
29402;SDS011;16382;59.942;30.472;2022-10-23T00:03:11;3.25;;;2.85;;
29402;SDS011;16382;59.942;30.472;2022-10-23T00:05:39;6.50;;;3.10;;
29402;SDS011;16382;59.942;30.472;2022-10-23T00:08:06;4.28;;;3.03;;
29402;SDS011;16382;59.942;30.472;2022-10-23T00:10:34;4.18;;;3.05;;
29402;SDS011;16382;59.942;30.472;2022-10-23T00:13:01;4.40;;;3.13;;
29402;SDS011;16382;59.942;30.472;2022-10-23T00:15:28;6.22;;;2.95;;
29402;SDS011;16382;59.942;30.472;2022-10-23T00:17:57;5.07;;;2.85;;
29402;SDS011;16382;59.942;30.472;2022-10-23T00:20:24;3.42;;;2.60;;
29402;SDS011;16382;59.942;30.472;2022-10-23T00:22:51;5.68;;;3.30;;
29402;SDS011;16382;59.942;30.472;2022-10-23T00:25:19;5.45;;;2.97;;
29402;SDS011;16382;59.942;30.472;2022-10-23T00:27:46;5.82;;;3.08;;
29402;SDS011;16382;59.942;30.472;2022-10-23T00:30:13;4.13;;;2.63;;
29402;SDS011;16382;59.942;30.472;2022-10-23T00:32:40;8.00;;;3.30;;
29402;SDS011;16382;59.942;30.472;2022-10-23T00:35:09;7.32;;;3.20;;
29402;SDS011;16382;59.942;30.472;2022-10-23T00:37:36;3.58;;;3.10;;
29402;SDS011;16382;59.942;30.472;2022-10-23T00:40:04;5.22;;;2.72;;
29402;SDS011;16382;59.942;30.472;2022-10-23T00:42:32;5.45;;;2.83;;
29402;SDS011;16382;59.942;30.472;2022-10-23T00:45:08;3.70;;;2.72;;
29402;SDS011;16382;59.942;30.472;2022-10-23T00:47:48;3.33;;;2.50;;
29402;SDS011;16382;59.942;30.472;2022-10-23T00:50:17;3.85;;;2.65;;
29402;SDS011;16382;59.942;30.472;2022-10-23T00:52:45;3.97;;;2.90;;
29402;SDS011;16382;59.942;30.472;2022-10-23T00:55:15;4.38;;;2.83;;
29402;SDS011;16382;59.942;30.472;2022-10-23T00:57:44;3.15;;;2.45;;
29402;SDS011;16382;59.942;30.472;2022-10-23T01:00:15;3.63;;;3.33;;
29402;SDS011;16382;59.942;30.472;2022-10-23T01:02:44;7.50;;;3.13;;
29402;SDS011;16382;59.942;30.472;2022-10-23T01:05:11;8.20;;;3.35;;
29402;SDS011;16382;59.942;30.472;2022-10-23T01:07:44;4.47;;;3.08;;
29402;SDS011;16382;59.942;30.472;2022-10-23T01:10:18;3.05;;;2.70;;
29402;SDS011;16382;59.942;30.472;2022-10-23T01:12:54;5.75;;;3.05;;
29402;SDS011;16382;59.942;30.472;2022-10-23T01:15:27;6.38;;;3.20;;
29402;SDS011;16382;59.942;30.472;2022-10-23T01:18:01;6.03;;;2.97;;
29402;SDS011;16382;59.942;30.472;2022-10-23T01:20:37;9.27;;;3.72;;
29402;SDS011;16382;59.942;30.472;2022-10-23T01:26:29;4.65;;;2.42;;
29402;SDS011;16382;59.942;30.472;2022-10-23T01:29:16;5.40;;;3.03;;
29402;SDS011;16382;59.942;30.472;2022-10-23T01:31:49;5.80;;;2.92;;
29402;SDS011;16382;59.942;30.472;2022-10-23T01:34:22;3.70;;;3.33;;
29402;SDS011;16382;59.942;30.472;2022-10-23T01:36:56;5.72;;;3.22;;
29402;SDS011;16382;59.942;30.472;2022-10-23T01:39:28;5.63;;;3.35;;
29402;SDS011;16382;59.942;30.472;2022-10-23T01:42:01;6.15;;;3.75;;
29402;SDS011;16382;59.942;30.472;2022-10-23T01:44:34;8.00;;;4.05;;
29402;SDS011;16382;59.942;30.472;2022-10-23T01:47:05;3.88;;;2.88;;
29402;SDS011;16382;59.942;30.472;2022-10-23T01:49:50;7.38;;;2.80;;
29402;SDS011;16382;59.942;30.472;2022-10-23T01:52:20;6.55;;;3.72;;
29402;SDS011;16382;59.942;30.472;2022-10-23T01:54:49;4.38;;;3.20;;
29402;SDS011;16382;59.942;30.472;2022-10-23T01:57:19;6.15;;;2.95;;
29402;SDS011;16382;59.942;30.472;2022-10-23T01:59:51;7.25;;;4.55;;
29402;SDS011;16382;59.942;30.472;2022-10-23T02:02:22;6.50;;;3.88;;
29402;SDS011;16382;59.942;30.472;2022-10-23T02:04:54;5.78;;;3.30;;
29402;SDS011;16382;59.942;30.472;2022-10-23T02:07:25;9.88;;;3.95;;
29402;SDS011;16382;59.942;30.472;2022-10-23T02:09:53;4.88;;;3.17;;
29402;SDS011;16382;59.942;30.472;2022-10-23T02:12:22;7.93;;;3.42;;
29402;SDS011;16382;59.942;30.472;2022-10-23T02:15:18;6.35;;;3.47;;
29402;SDS011;16382;59.942;30.472;2022-10-23T02:17:54;5.88;;;3.60;;
29402;SDS011;16382;59.942;30.472;2022-10-23T02:20:32;11.05;;;3.92;;
29402;SDS011;16382;59.942;30.472;2022-10-23T02:23:07;7.07;;;3.70;;
29402;SDS011;16382;59.942;30.472;2022-10-23T02:25:45;7.68;;;3.17;;
29402;SDS011;16382;59.942;30.472;2022-10-23T02:28:18;3.97;;;3.08;;
29402;SDS011;16382;59.942;30.472;2022-10-23T02:30:55;6.40;;;3.70;;
29402;SDS011;16382;59.942;30.472;2022-10-23T02:33:25;4.25;;;3.03;;
29402;SDS011;16382;59.942;30.472;2022-10-23T02:35:53;6.15;;;3.75;;
29402;SDS011;16382;59.942;30.472;2022-10-23T02:38:29;6.95;;;3.00;;
29402;SDS011;16382;59.942;30.472;2022-10-23T02:41:02;7.63;;;3.33;;
29402;SDS011;16382;59.942;30.472;2022-10-23T02:43:44;6.32;;;3.38;;
29402;SDS011;16382;59.942;30.472;2022-10-23T02:46:23;7.25;;;3.72;;
29402;SDS011;16382;59.942;30.472;2022-10-23T02:48:57;6.75;;;3.20;;
29402;SDS011;16382;59.942;30.472;2022-10-23T02:51:32;6.18;;;3.63;;
29402;SDS011;16382;59.942;30.472;2022-10-23T02:54:07;3.63;;;2.85;;
29402;SDS011;16382;59.942;30.472;2022-10-23T02:56:46;5.32;;;2.92;;
29402;SDS011;16382;59.942;30.472;2022-10-23T02:59:24;4.78;;;3.05;;
29402;SDS011;16382;59.942;30.472;2022-10-23T03:02:00;5.68;;;3.10;;
29402;SDS011;16382;59.942;30.472;2022-10-23T03:04:35;6.63;;;3.63;;
29402;SDS011;16382;59.942;30.472;2022-10-23T03:07:04;5.43;;;3.40;;
29402;SDS011;16382;59.942;30.472;2022-10-23T03:09:36;5.70;;;3.55;;
29402;SDS011;16382;59.942;30.472;2022-10-23T03:12:03;5.20;;;3.45;;
29402;SDS011;16382;59.942;30.472;2022-10-23T03:14:32;4.03;;;3.05;;
29402;SDS011;16382;59.942;30.472;2022-10-23T03:17:02;7.32;;;3.80;;
29402;SDS011;16382;59.942;30.472;2022-10-23T03:19:30;6.72;;;3.65;;
29402;SDS011;16382;59.942;30.472;2022-10-23T03:21:57;7.10;;;4.10;;
29402;SDS011;16382;59.942;30.472;2022-10-23T03:24:25;4.70;;;3.47;;
29402;SDS011;16382;59.942;30.472;2022-10-23T03:26:52;6.70;;;4.07;;
29402;SDS011;16382;59.942;30.472;2022-10-23T03:29:28;7.65;;;3.92;;
29402;SDS011;16382;59.942;30.472;2022-10-23T03:31:55;6.90;;;3.60;;
29402;SDS011;16382;59.942;30.472;2022-10-23T03:34:24;5.15;;;3.47;;
29402;SDS011;16382;59.942;30.472;2022-10-23T03:36:52;5.40;;;3.35;;
29402;SDS011;16382;59.942;30.472;2022-10-23T03:39:19;4.53;;;3.13;;
29402;SDS011;16382;59.942;30.472;2022-10-23T03:41:48;6.28;;;3.70;;
29402;SDS011;16382;59.942;30.472;2022-10-23T03:44:16;5.95;;;4.22;;
29402;SDS011;16382;59.942;30.472;2022-10-23T03:46:44;5.85;;;3.70;;
29402;SDS011;16382;59.942;30.472;2022-10-23T03:49:11;10.00;;;3.03;;
29402;SDS011;16382;59.942;30.472;2022-10-23T03:51:43;6.25;;;4.13;;
29402;SDS011;16382;59.942;30.472;2022-10-23T03:54:17;6.60;;;3.83;;
29402;SDS011;16382;59.942;30.472;2022-10-23T03:56:46;6.50;;;3.53;;
29402;SDS011;16382;59.942;30.472;2022-10-23T03:59:13;7.30;;;3.60;;
29402;SDS011;16382;59.942;30.472;2022-10-23T04:01:41;4.82;;;3.67;;
29402;SDS011;16382;59.942;30.472;2022-10-23T04:04:08;6.85;;;3.97;;
29402;SDS011;16382;59.942;30.472;2022-10-23T04:06:39;4.80;;;3.35;;
29402;SDS011;16382;59.942;30.472;2022-10-23T04:09:08;5.85;;;3.53;;
29402;SDS011;16382;59.942;30.472;2022-10-23T04:11:36;6.22;;;3.20;;
29402;SDS011;16382;59.942;30.472;2022-10-23T04:14:03;7.50;;;3.25;;
29402;SDS011;16382;59.942;30.472;2022-10-23T04:16:31;4.47;;;3.38;;
29402;SDS011;16382;59.942;30.472;2022-10-23T04:18:58;4.15;;;3.65;;
29402;SDS011;16382;59.942;30.472;2022-10-23T04:21:28;8.00;;;4.05;;
29402;SDS011;16382;59.942;30.472;2022-10-23T04:23:55;7.50;;;3.10;;
29402;SDS011;16382;59.942;30.472;2022-10-23T04:26:24;4.60;;;3.03;;
29402;SDS011;16382;59.942;30.472;2022-10-23T04:28:51;3.45;;;3.10;;
29402;SDS011;16382;59.942;30.472;2022-10-23T04:31:18;6.15;;;3.70;;
29402;SDS011;16382;59.942;30.472;2022-10-23T04:33:45;7.07;;;3.42;;
29402;SDS011;16382;59.942;30.472;2022-10-23T04:36:26;9.07;;;3.78;;
29402;SDS011;16382;59.942;30.472;2022-10-23T04:38:53;5.85;;;3.88;;
29402;SDS011;16382;59.942;30.472;2022-10-23T04:41:20;5.93;;;3.55;;
29402;SDS011;16382;59.942;30.472;2022-10-23T04:43:49;8.63;;;4.00;;
29402;SDS011;16382;59.942;30.472;2022-10-23T04:46:16;10.63;;;3.83;;
29402;SDS011;16382;59.942;30.472;2022-10-23T04:48:46;5.25;;;3.97;;
29402;SDS011;16382;59.942;30.472;2022-10-23T04:51:43;6.25;;;3.97;;
29402;SDS011;16382;59.942;30.472;2022-10-23T04:54:36;5.68;;;4.07;;
29402;SDS011;16382;59.942;30.472;2022-10-23T04:57:22;4.68;;;3.33;;
29402;SDS011;16382;59.942;30.472;2022-10-23T05:00:03;9.27;;;4.38;;
29402;SDS011;16382;59.942;30.472;2022-10-23T05:02:39;8.55;;;4.95;;
29402;SDS011;16382;59.942;30.472;2022-10-23T05:05:07;6.65;;;4.20;;
29402;SDS011;16382;59.942;30.472;2022-10-23T05:07:54;8.32;;;3.88;;
29402;SDS011;16382;59.942;30.472;2022-10-23T05:10:41;6.50;;;3.65;;
29402;SDS011;16382;59.942;30.472;2022-10-23T05:13:13;4.30;;;3.47;;
29402;SDS011;16382;59.942;30.472;2022-10-23T05:15:42;7.80;;;3.92;;
29402;SDS011;16382;59.942;30.472;2022-10-23T05:18:10;5.10;;;3.95;;
29402;SDS011;16382;59.942;30.472;2022-10-23T05:20:41;8.07;;;4.63;;
29402;SDS011;16382;59.942;30.472;2022-10-23T05:23:12;10.07;;;4.40;;
29402;SDS011;16382;59.942;30.472;2022-10-23T05:25:52;8.23;;;3.85;;
29402;SDS011;16382;59.942;30.472;2022-10-23T05:28:20;6.82;;;4.10;;
29402;SDS011;16382;59.942;30.472;2022-10-23T05:30:49;12.73;;;4.38;;
29402;SDS011;16382;59.942;30.472;2022-10-23T05:33:17;6.93;;;3.88;;
29402;SDS011;16382;59.942;30.472;2022-10-23T05:35:46;7.50;;;4.03;;
29402;SDS011;16382;59.942;30.472;2022-10-23T05:38:15;6.78;;;3.47;;
29402;SDS011;16382;59.942;30.472;2022-10-23T05:40:43;4.63;;;3.47;;
29402;SDS011;16382;59.942;30.472;2022-10-23T05:43:16;7.45;;;4.15;;
29402;SDS011;16382;59.942;30.472;2022-10-23T05:45:50;6.93;;;3.42;;
29402;SDS011;16382;59.942;30.472;2022-10-23T05:48:36;10.52;;;4.47;;
29402;SDS011;16382;59.942;30.472;2022-10-23T05:51:22;7.30;;;4.22;;
29402;SDS011;16382;59.942;30.472;2022-10-23T05:53:54;9.13;;;5.28;;
29402;SDS011;16382;59.942;30.472;2022-10-23T05:56:31;6.43;;;3.75;;
29402;SDS011;16382;59.942;30.472;2022-10-23T05:59:07;8.40;;;4.22;;
29402;SDS011;16382;59.942;30.472;2022-10-23T06:01:57;7.40;;;5.20;;
29402;SDS011;16382;59.942;30.472;2022-10-23T06:04:37;8.48;;;4.43;;
29402;SDS011;16382;59.942;30.472;2022-10-23T06:07:10;8.05;;;4.53;;
29402;SDS011;16382;59.942;30.472;2022-10-23T06:09:38;7.78;;;4.85;;
29402;SDS011;16382;59.942;30.472;2022-10-23T06:12:06;9.25;;;4.53;;
29402;SDS011;16382;59.942;30.472;2022-10-23T06:14:34;7.53;;;4.88;;
29402;SDS011;16382;59.942;30.472;2022-10-23T06:17:03;9.10;;;4.63;;
29402;SDS011;16382;59.942;30.472;2022-10-23T06:19:37;8.65;;;4.78;;
29402;SDS011;16382;59.942;30.472;2022-10-23T06:22:09;7.45;;;4.32;;
29402;SDS011;16382;59.942;30.472;2022-10-23T06:24:48;11.73;;;6.65;;
29402;SDS011;16382;59.942;30.472;2022-10-23T06:27:21;13.00;;;5.22;;
29402;SDS011;16382;59.942;30.472;2022-10-23T06:29:50;8.32;;;5.43;;
29402;SDS011;16382;59.942;30.472;2022-10-23T06:32:23;8.55;;;4.70;;
29402;SDS011;16382;59.942;30.472;2022-10-23T06:35:06;11.70;;;5.65;;
29402;SDS011;16382;59.942;30.472;2022-10-23T06:37:34;12.05;;;5.63;;
29402;SDS011;16382;59.942;30.472;2022-10-23T06:40:09;10.60;;;5.65;;
29402;SDS011;16382;59.942;30.472;2022-10-23T06:42:57;11.73;;;5.50;;
29402;SDS011;16382;59.942;30.472;2022-10-23T06:45:53;7.90;;;4.85;;
29402;SDS011;16382;59.942;30.472;2022-10-23T06:48:46;11.07;;;5.07;;
29402;SDS011;16382;59.942;30.472;2022-10-23T06:51:22;10.40;;;5.05;;
29402;SDS011;16382;59.942;30.472;2022-10-23T06:53:54;15.00;;;7.03;;
29402;SDS011;16382;59.942;30.472;2022-10-23T06:56:40;8.68;;;5.15;;
29402;SDS011;16382;59.942;30.472;2022-10-23T06:59:08;14.15;;;5.03;;
29402;SDS011;16382;59.942;30.472;2022-10-23T07:01:36;12.50;;;5.22;;
29402;SDS011;16382;59.942;30.472;2022-10-23T07:04:10;15.77;;;4.60;;
29402;SDS011;16382;59.942;30.472;2022-10-23T07:06:47;12.10;;;4.80;;
29402;SDS011;16382;59.942;30.472;2022-10-23T07:09:29;6.82;;;4.85;;
29402;SDS011;16382;59.942;30.472;2022-10-23T07:12:16;8.50;;;5.18;;
29402;SDS011;16382;59.942;30.472;2022-10-23T07:14:49;11.20;;;6.03;;
29402;SDS011;16382;59.942;30.472;2022-10-23T07:17:17;17.45;;;5.13;;
29402;SDS011;16382;59.942;30.472;2022-10-23T07:19:46;10.38;;;4.85;;
29402;SDS011;16382;59.942;30.472;2022-10-23T07:22:14;10.52;;;4.55;;
29402;SDS011;16382;59.942;30.472;2022-10-23T07:25:14;8.13;;;4.72;;
29402;SDS011;16382;59.942;30.472;2022-10-23T07:27:43;8.85;;;4.93;;
29402;SDS011;16382;59.942;30.472;2022-10-23T07:30:11;10.27;;;4.53;;
29402;SDS011;16382;59.942;30.472;2022-10-23T07:32:47;14.00;;;4.88;;
29402;SDS011;16382;59.942;30.472;2022-10-23T07:35:37;7.30;;;5.05;;
29402;SDS011;16382;59.942;30.472;2022-10-23T07:38:22;11.98;;;5.47;;
29402;SDS011;16382;59.942;30.472;2022-10-23T07:40:52;13.48;;;5.72;;
29402;SDS011;16382;59.942;30.472;2022-10-23T07:43:23;13.65;;;5.70;;
29402;SDS011;16382;59.942;30.472;2022-10-23T07:45:51;11.38;;;5.45;;
29402;SDS011;16382;59.942;30.472;2022-10-23T07:48:29;19.48;;;6.85;;
29402;SDS011;16382;59.942;30.472;2022-10-23T07:50:59;8.63;;;5.68;;
29402;SDS011;16382;59.942;30.472;2022-10-23T07:53:29;8.77;;;5.65;;
29402;SDS011;16382;59.942;30.472;2022-10-23T07:56:08;13.57;;;6.53;;
29402;SDS011;16382;59.942;30.472;2022-10-23T07:58:56;7.78;;;5.78;;
29402;SDS011;16382;59.942;30.472;2022-10-23T08:01:26;8.52;;;5.70;;
29402;SDS011;16382;59.942;30.472;2022-10-23T08:04:12;12.52;;;6.13;;
29402;SDS011;16382;59.942;30.472;2022-10-23T08:07:06;12.57;;;6.47;;
29402;SDS011;16382;59.942;30.472;2022-10-23T08:09:40;13.10;;;7.88;;
29402;SDS011;16382;59.942;30.472;2022-10-23T08:12:11;14.95;;;7.95;;
29402;SDS011;16382;59.942;30.472;2022-10-23T08:14:40;12.68;;;6.68;;
29402;SDS011;16382;59.942;30.472;2022-10-23T08:17:08;9.30;;;6.25;;
29402;SDS011;16382;59.942;30.472;2022-10-23T08:20:05;11.73;;;6.53;;
29402;SDS011;16382;59.942;30.472;2022-10-23T08:22:39;12.15;;;6.45;;
29402;SDS011;16382;59.942;30.472;2022-10-23T08:25:08;15.55;;;6.57;;
29402;SDS011;16382;59.942;30.472;2022-10-23T08:27:37;14.07;;;6.47;;
29402;SDS011;16382;59.942;30.472;2022-10-23T08:30:05;11.75;;;6.53;;
29402;SDS011;16382;59.942;30.472;2022-10-23T08:32:34;10.85;;;6.47;;
29402;SDS011;16382;59.942;30.472;2022-10-23T08:35:02;11.90;;;6.35;;
29402;SDS011;16382;59.942;30.472;2022-10-23T08:37:31;14.02;;;7.63;;
29402;SDS011;16382;59.942;30.472;2022-10-23T08:40:00;12.63;;;7.50;;
29402;SDS011;16382;59.942;30.472;2022-10-23T08:42:50;16.45;;;7.25;;
29402;SDS011;16382;59.942;30.472;2022-10-23T08:45:29;14.68;;;7.28;;
29402;SDS011;16382;59.942;30.472;2022-10-23T08:48:08;10.63;;;6.07;;
29402;SDS011;16382;59.942;30.472;2022-10-23T08:51:04;16.48;;;7.15;;
29402;SDS011;16382;59.942;30.472;2022-10-23T08:53:39;13.50;;;7.95;;
29402;SDS011;16382;59.942;30.472;2022-10-23T08:56:16;11.20;;;6.93;;
29402;SDS011;16382;59.942;30.472;2022-10-23T08:58:49;16.65;;;7.95;;
29402;SDS011;16382;59.942;30.472;2022-10-23T09:01:29;10.93;;;7.88;;
29402;SDS011;16382;59.942;30.472;2022-10-23T09:04:04;11.48;;;7.55;;
29402;SDS011;16382;59.942;30.472;2022-10-23T09:06:38;17.45;;;7.28;;
29402;SDS011;16382;59.942;30.472;2022-10-23T09:12:10;14.98;;;7.47;;
29402;SDS011;16382;59.942;30.472;2022-10-23T09:14:45;17.38;;;8.27;;
29402;SDS011;16382;59.942;30.472;2022-10-23T09:17:24;11.68;;;6.93;;
29402;SDS011;16382;59.942;30.472;2022-10-23T09:19:58;17.83;;;7.72;;
29402;SDS011;16382;59.942;30.472;2022-10-23T09:22:30;14.23;;;7.90;;
29402;SDS011;16382;59.942;30.472;2022-10-23T09:24:58;19.65;;;8.05;;
29402;SDS011;16382;59.942;30.472;2022-10-23T09:27:35;12.20;;;6.82;;
29402;SDS011;16382;59.942;30.472;2022-10-23T09:30:23;14.82;;;8.82;;
29402;SDS011;16382;59.942;30.472;2022-10-23T09:32:56;18.05;;;9.80;;
29402;SDS011;16382;59.942;30.472;2022-10-23T09:35:26;16.85;;;9.07;;
29402;SDS011;16382;59.942;30.472;2022-10-23T09:38:02;17.08;;;9.63;;
29402;SDS011;16382;59.942;30.472;2022-10-23T09:40:31;14.65;;;8.75;;
29402;SDS011;16382;59.942;30.472;2022-10-23T09:43:13;20.17;;;9.63;;
29402;SDS011;16382;59.942;30.472;2022-10-23T09:45:42;18.75;;;9.45;;
29402;SDS011;16382;59.942;30.472;2022-10-23T09:48:22;22.08;;;10.27;;
29402;SDS011;16382;59.942;30.472;2022-10-23T09:50:54;24.17;;;9.73;;
29402;SDS011;16382;59.942;30.472;2022-10-23T09:53:28;23.27;;;9.77;;
29402;SDS011;16382;59.942;30.472;2022-10-23T09:56:00;21.42;;;10.07;;
29402;SDS011;16382;59.942;30.472;2022-10-23T09:58:34;21.23;;;10.82;;
29402;SDS011;16382;59.942;30.472;2022-10-23T10:01:04;23.60;;;10.98;;
29402;SDS011;16382;59.942;30.472;2022-10-23T10:03:48;17.38;;;11.43;;
29402;SDS011;16382;59.942;30.472;2022-10-23T10:06:21;17.52;;;10.50;;
29402;SDS011;16382;59.942;30.472;2022-10-23T10:08:50;19.15;;;11.02;;
29402;SDS011;16382;59.942;30.472;2022-10-23T10:11:21;17.85;;;11.13;;
29402;SDS011;16382;59.942;30.472;2022-10-23T10:17:21;17.23;;;10.67;;
29402;SDS011;16382;59.942;30.472;2022-10-23T10:23:13;21.08;;;11.65;;
29402;SDS011;16382;59.942;30.472;2022-10-23T10:25:53;21.30;;;13.27;;
29402;SDS011;16382;59.942;30.472;2022-10-23T10:28:39;25.58;;;13.57;;
29402;SDS011;16382;59.942;30.472;2022-10-23T10:31:22;19.48;;;13.32;;
29402;SDS011;16382;59.942;30.472;2022-10-23T10:34:00;19.15;;;12.27;;
29402;SDS011;16382;59.942;30.472;2022-10-23T10:39:28;18.70;;;12.52;;
29402;SDS011;16382;59.942;30.472;2022-10-23T10:45:12;23.88;;;14.35;;
29402;SDS011;16382;59.942;30.472;2022-10-23T10:48:08;29.30;;;15.18;;
29402;SDS011;16382;59.942;30.472;2022-10-23T10:51:35;27.33;;;14.63;;
29402;SDS011;16382;59.942;30.472;2022-10-23T10:54:17;27.77;;;16.02;;
29402;SDS011;16382;59.942;30.472;2022-10-23T10:56:53;36.75;;;18.10;;
29402;SDS011;16382;59.942;30.472;2022-10-23T10:59:26;27.60;;;18.05;;
29402;SDS011;16382;59.942;30.472;2022-10-23T11:01:55;29.30;;;19.75;;
29402;SDS011;16382;59.942;30.472;2022-10-23T11:04:30;29.10;;;18.58;;
29402;SDS011;16382;59.942;30.472;2022-10-23T11:07:08;27.30;;;17.52;;
29402;SDS011;16382;59.942;30.472;2022-10-23T11:09:39;36.17;;;18.73;;
29402;SDS011;16382;59.942;30.472;2022-10-23T11:12:14;38.40;;;19.85;;
29402;SDS011;16382;59.942;30.472;2022-10-23T11:14:46;35.00;;;21.00;;
29402;SDS011;16382;59.942;30.472;2022-10-23T11:17:19;30.52;;;19.92;;
29402;SDS011;16382;59.942;30.472;2022-10-23T11:19:53;26.98;;;18.10;;
29402;SDS011;16382;59.942;30.472;2022-10-23T11:22:34;28.23;;;19.17;;
29402;SDS011;16382;59.942;30.472;2022-10-23T11:27:59;25.75;;;17.88;;
29402;SDS011;16382;59.942;30.472;2022-10-23T11:30:46;26.42;;;17.13;;
29402;SDS011;16382;59.942;30.472;2022-10-23T11:36:40;27.00;;;16.52;;
29402;SDS011;16382;59.942;30.472;2022-10-23T11:39:20;29.45;;;18.52;;
29402;SDS011;16382;59.942;30.472;2022-10-23T11:41:52;28.88;;;17.35;;
29402;SDS011;16382;59.942;30.472;2022-10-23T11:44:23;28.98;;;18.60;;
29402;SDS011;16382;59.942;30.472;2022-10-23T11:47:05;38.45;;;23.90;;
29402;SDS011;16382;59.942;30.472;2022-10-23T11:50:15;40.78;;;25.02;;
29402;SDS011;16382;59.942;30.472;2022-10-23T11:52:54;45.40;;;28.35;;
29402;SDS011;16382;59.942;30.472;2022-10-23T11:55:29;48.63;;;31.13;;
29402;SDS011;16382;59.942;30.472;2022-10-23T11:58:07;65.15;;;36.85;;
29402;SDS011;16382;59.942;30.472;2022-10-23T12:00:54;46.08;;;30.15;;
29402;SDS011;16382;59.942;30.472;2022-10-23T12:03:35;53.47;;;31.58;;
29402;SDS011;16382;59.942;30.472;2022-10-23T12:06:15;55.42;;;36.40;;
29402;SDS011;16382;59.942;30.472;2022-10-23T12:08:52;56.90;;;36.35;;
29402;SDS011;16382;59.942;30.472;2022-10-23T12:11:25;46.58;;;29.23;;
29402;SDS011;16382;59.942;30.472;2022-10-23T12:13:55;37.65;;;25.10;;
29402;SDS011;16382;59.942;30.472;2022-10-23T12:16:32;46.70;;;26.90;;
29402;SDS011;16382;59.942;30.472;2022-10-23T12:19:00;39.33;;;25.40;;
29402;SDS011;16382;59.942;30.472;2022-10-23T12:21:44;43.55;;;28.45;;
29402;SDS011;16382;59.942;30.472;2022-10-23T12:24:23;44.47;;;29.63;;
29402;SDS011;16382;59.942;30.472;2022-10-23T12:29:55;42.53;;;29.25;;
29402;SDS011;16382;59.942;30.472;2022-10-23T12:32:42;44.70;;;26.17;;
29402;SDS011;16382;59.942;30.472;2022-10-23T12:35:25;44.20;;;27.67;;
29402;SDS011;16382;59.942;30.472;2022-10-23T12:38:14;41.60;;;25.67;;
29402;SDS011;16382;59.942;30.472;2022-10-23T12:40:44;37.67;;;23.20;;
29402;SDS011;16382;59.942;30.472;2022-10-23T12:43:25;34.60;;;22.65;;
29402;SDS011;16382;59.942;30.472;2022-10-23T12:45:56;35.97;;;23.35;;
29402;SDS011;16382;59.942;30.472;2022-10-23T12:48:31;31.00;;;19.90;;
29402;SDS011;16382;59.942;30.472;2022-10-23T12:50:58;28.38;;;20.05;;
29402;SDS011;16382;59.942;30.472;2022-10-23T12:53:26;31.10;;;20.50;;
29402;SDS011;16382;59.942;30.472;2022-10-23T12:55:55;33.50;;;20.75;;
29402;SDS011;16382;59.942;30.472;2022-10-23T12:58:27;27.13;;;20.02;;
29402;SDS011;16382;59.942;30.472;2022-10-23T13:01:00;33.60;;;21.92;;
29402;SDS011;16382;59.942;30.472;2022-10-23T13:03:29;28.77;;;20.48;;
29402;SDS011;16382;59.942;30.472;2022-10-23T13:05:58;34.45;;;19.38;;
29402;SDS011;16382;59.942;30.472;2022-10-23T13:08:28;24.33;;;17.00;;
29402;SDS011;16382;59.942;30.472;2022-10-23T13:11:21;25.52;;;17.77;;
29402;SDS011;16382;59.942;30.472;2022-10-23T13:13:56;22.70;;;15.63;;
29402;SDS011;16382;59.942;30.472;2022-10-23T13:16:24;20.85;;;15.85;;
29402;SDS011;16382;59.942;30.472;2022-10-23T13:18:53;24.67;;;16.38;;
29402;SDS011;16382;59.942;30.472;2022-10-23T13:21:21;21.15;;;14.07;;
29402;SDS011;16382;59.942;30.472;2022-10-23T13:23:51;20.25;;;15.45;;
29402;SDS011;16382;59.942;30.472;2022-10-23T13:26:24;23.73;;;14.77;;
29402;SDS011;16382;59.942;30.472;2022-10-23T13:31:53;20.85;;;15.57;;
29402;SDS011;16382;59.942;30.472;2022-10-23T13:34:25;19.98;;;14.30;;
29402;SDS011;16382;59.942;30.472;2022-10-23T13:36:57;18.42;;;14.23;;
29402;SDS011;16382;59.942;30.472;2022-10-23T13:39:31;20.27;;;12.57;;
29402;SDS011;16382;59.942;30.472;2022-10-23T13:42:12;18.73;;;13.38;;
29402;SDS011;16382;59.942;30.472;2022-10-23T13:44:45;23.10;;;13.50;;
29402;SDS011;16382;59.942;30.472;2022-10-23T13:47:13;20.98;;;13.48;;
29402;SDS011;16382;59.942;30.472;2022-10-23T13:49:42;19.17;;;12.95;;
29402;SDS011;16382;59.942;30.472;2022-10-23T13:52:10;18.40;;;12.90;;
29402;SDS011;16382;59.942;30.472;2022-10-23T13:54:47;19.25;;;13.07;;
29402;SDS011;16382;59.942;30.472;2022-10-23T13:57:15;16.85;;;13.00;;
29402;SDS011;16382;59.942;30.472;2022-10-23T13:59:44;21.52;;;13.65;;
29402;SDS011;16382;59.942;30.472;2022-10-23T14:02:14;17.48;;;12.20;;
29402;SDS011;16382;59.942;30.472;2022-10-23T14:04:45;15.35;;;11.70;;
29402;SDS011;16382;59.942;30.472;2022-10-23T14:07:13;16.90;;;11.85;;
29402;SDS011;16382;59.942;30.472;2022-10-23T14:09:43;16.42;;;12.63;;
29402;SDS011;16382;59.942;30.472;2022-10-23T14:12:15;16.50;;;12.60;;
29402;SDS011;16382;59.942;30.472;2022-10-23T14:14:45;17.02;;;11.15;;
29402;SDS011;16382;59.942;30.472;2022-10-23T14:17:16;13.57;;;11.10;;
29402;SDS011;16382;59.942;30.472;2022-10-23T14:19:45;16.42;;;10.85;;
29402;SDS011;16382;59.942;30.472;2022-10-23T14:22:12;16.58;;;11.57;;
29402;SDS011;16382;59.942;30.472;2022-10-23T14:24:39;15.48;;;11.00;;
29402;SDS011;16382;59.942;30.472;2022-10-23T14:27:06;14.93;;;11.13;;
29402;SDS011;16382;59.942;30.472;2022-10-23T14:29:34;17.48;;;10.80;;
29402;SDS011;16382;59.942;30.472;2022-10-23T14:32:05;13.60;;;10.85;;
29402;SDS011;16382;59.942;30.472;2022-10-23T14:34:32;17.83;;;11.75;;
29402;SDS011;16382;59.942;30.472;2022-10-23T14:36:59;14.88;;;10.85;;
29402;SDS011;16382;59.942;30.472;2022-10-23T14:39:27;11.65;;;9.82;;
29402;SDS011;16382;59.942;30.472;2022-10-23T14:41:55;12.85;;;9.77;;
29402;SDS011;16382;59.942;30.472;2022-10-23T14:44:32;14.18;;;9.82;;
29402;SDS011;16382;59.942;30.472;2022-10-23T14:47:00;15.73;;;9.50;;
29402;SDS011;16382;59.942;30.472;2022-10-23T14:49:29;14.68;;;10.05;;
29402;SDS011;16382;59.942;30.472;2022-10-23T14:51:59;16.73;;;12.18;;
29402;SDS011;16382;59.942;30.472;2022-10-23T14:54:27;16.45;;;10.27;;
29402;SDS011;16382;59.942;30.472;2022-10-23T14:56:57;12.77;;;9.23;;
29402;SDS011;16382;59.942;30.472;2022-10-23T14:59:30;14.00;;;9.68;;
29402;SDS011;16382;59.942;30.472;2022-10-23T15:01:58;11.88;;;9.88;;
29402;SDS011;16382;59.942;30.472;2022-10-23T15:04:25;16.42;;;10.20;;
29402;SDS011;16382;59.942;30.472;2022-10-23T15:06:54;13.35;;;9.65;;
29402;SDS011;16382;59.942;30.472;2022-10-23T15:09:24;12.60;;;9.00;;
29402;SDS011;16382;59.942;30.472;2022-10-23T15:11:52;11.07;;;8.77;;
29402;SDS011;16382;59.942;30.472;2022-10-23T15:14:24;13.65;;;9.10;;
29402;SDS011;16382;59.942;30.472;2022-10-23T15:16:51;12.32;;;8.88;;
29402;SDS011;16382;59.942;30.472;2022-10-23T15:19:19;15.10;;;9.73;;
29402;SDS011;16382;59.942;30.472;2022-10-23T15:21:48;17.33;;;12.18;;
29402;SDS011;16382;59.942;30.472;2022-10-23T15:24:17;12.60;;;8.27;;
29402;SDS011;16382;59.942;30.472;2022-10-23T15:26:46;10.43;;;6.70;;
29402;SDS011;16382;59.942;30.472;2022-10-23T15:29:14;14.82;;;7.28;;
29402;SDS011;16382;59.942;30.472;2022-10-23T15:31:43;7.80;;;6.28;;